< < Back
Terminal Aerodrome Forecast


Current Version              Previous Versions:   1  2  3  4  5  6  7  8  9  

Terminal Aerodrome Forecast

565
FTUS44 KBMX 301539 AAA
TAFANB
TAF AMD
KANB 301539Z 3016/3112 26005KT P6SM VCSH SCT040
     FM301700 23007KT P6SM VCTS BKN050CB
     FM310100 00000KT P6SM FEW040=

Latest METAR

543
SAUS70 KWBC 301600 RRE
MTRANB
METAR KANB 301553Z AUTO VRB04KT 10SM FEW025 SCT049 30/23 A3006 RMK AO2
SLP168 T03000228 PNO $


USA.gov is the U.S. government's official web portal to all federal, state and local government web resources and services.